Time;durP1;ratioP1;P1;durP2;ratioP2;P2;SDS_P1;SDS_P2;PMS_P1;PMS_P2;Temp;Humidity;BMP_temperature;BMP_pressure;BME280_temperature;BME280_humidity;BME280_pressure;Samples;Min_cycle;Max_cycle;Signal;HPM_P1;HPM_P2
2022/07/02 00:01:41;;;;;;;10.98;1.45;;;;;;;-145.67;100.00;66521.78;4998363;28;20043;-72
2022/07/02 00:04:06;;;;;;;5.85;1.58;;;;;;;-145.67;100.00;66521.78;4986260;28;20037;-74
2022/07/02 00:06:35;;;;;;;9.73;1.42;;;;;;;-145.67;100.00;66521.78;4985786;28;20490;-72
2022/07/02 00:09:01;;;;;;;14.00;1.63;;;;;;;-145.67;100.00;66521.78;5006188;28;20046;-74
2022/07/02 00:11:26;;;;;;;16.88;2.85;;;;;;;-145.67;100.00;66521.78;5002840;28;20044;-75
2022/07/02 00:13:53;;;;;;;16.10;3.83;;;;;;;-145.67;100.00;66521.78;5001594;28;20038;-73
2022/07/02 00:16:19;;;;;;;14.48;4.50;;;;;;;-145.67;100.00;66521.78;5004094;28;20752;-73
2022/07/02 00:18:45;;;;;;;13.43;5.78;;;;;;;-145.67;100.00;66521.78;5001478;28;20064;-73
2022/07/02 00:21:10;;;;;;;12.35;5.60;;;;;;;-145.67;100.00;66521.78;5006269;28;20030;-74
2022/07/02 00:23:36;;;;;;;15.02;2.90;;;;;;;-145.67;100.00;66521.78;5000885;28;20105;-74
2022/07/02 00:26:10;;;;;;;10.68;1.60;;;;;;;-145.67;100.00;66521.78;5007046;28;20037;-74
2022/07/02 00:28:40;;;;;;;9.18;1.60;;;;;;;-145.67;100.00;66521.78;5001065;28;20037;-74
2022/07/02 00:31:06;;;;;;;12.52;1.80;;;;;;;-145.67;100.00;66521.78;4990152;28;21879;-73
2022/07/02 00:33:33;;;;;;;9.52;1.45;;;;;;;-145.67;100.00;66521.78;5005235;28;20505;-74
2022/07/02 00:35:59;;;;;;;14.30;2.47;;;;;;;-145.67;100.00;66521.78;4999746;28;20041;-74
2022/07/02 00:38:25;;;;;;;15.77;5.07;;;;;;;-145.67;100.00;66521.78;5017463;28;20042;-73
2022/07/02 00:40:51;;;;;;;16.33;5.03;;;;;;;-145.67;100.00;66521.78;5001304;28;20112;-73
2022/07/02 00:43:18;;;;;;;10.98;2.35;;;;;;;-145.67;100.00;66521.78;5001483;28;20822;-73
2022/07/02 00:45:44;;;;;;;9.40;1.67;;;;;;;-145.67;100.00;66521.78;4989857;28;20177;-75
2022/07/02 00:48:10;;;;;;;6.75;1.35;;;;;;;-145.67;100.00;66521.78;5002082;28;20038;-73
2022/07/02 00:50:38;;;;;;;7.80;1.50;;;;;;;-145.67;100.00;66521.78;4999714;28;20049;-75
2022/07/02 00:53:03;;;;;;;6.85;1.30;;;;;;;-145.67;100.00;66521.78;5014990;28;20075;-74
2022/07/02 00:55:29;;;;;;;12.32;2.03;;;;;;;-145.67;100.00;66521.78;5002347;28;20570;-74
2022/07/02 00:57:57;;;;;;;9.63;1.48;;;;;;;-145.67;100.00;66521.78;5000426;28;20112;-72
2022/07/02 01:00:23;;;;;;;15.43;1.83;;;;;;;-145.67;100.00;66521.78;4984218;28;21876;-73
2022/07/02 01:02:49;;;;;;;7.90;1.40;;;;;;;-145.67;100.00;66521.78;4998552;28;20457;-73
2022/07/02 01:05:19;;;;;;;8.63;1.25;;;;;;;-145.67;100.00;66521.78;4983618;28;20213;-74
2022/07/02 01:10:40;;;;;;;11.05;2.70;;;;;;;-145.67;100.00;66521.78;4990551;28;20387;-74
2022/07/02 01:13:08;;;;;;;21.92;6.55;;;;;;;-145.67;100.00;66521.78;5001344;28;20041;-73
2022/07/02 01:15:36;;;;;;;11.25;4.50;;;;;;;-145.67;100.00;66521.78;5001029;28;20100;-72
2022/07/02 01:18:04;;;;;;;11.77;5.57;;;;;;;-145.67;100.00;66521.78;4979654;28;20124;-72
2022/07/02 01:20:32;;;;;;;13.95;3.63;;;;;;;-145.67;100.00;66521.78;4999250;28;20037;-73
2022/07/02 01:22:57;;;;;;;15.77;3.88;;;;;;;-145.67;100.00;66521.78;5001410;28;20468;-73
2022/07/02 01:25:23;;;;;;;8.07;2.85;;;;;;;-145.67;100.00;66521.78;5001247;28;20454;-72
2022/07/02 01:27:48;;;;;;;12.38;4.00;;;;;;;-145.67;100.00;66521.78;5002462;28;20033;-73
2022/07/02 01:30:14;;;;;;;22.40;6.80;;;;;;;-145.67;100.00;66521.78;5000352;28;20056;-73
2022/07/02 01:32:40;;;;;;;21.52;6.75;;;;;;;-145.67;100.00;66521.78;4979735;28;20037;-73
2022/07/02 01:35:08;;;;;;;12.80;4.18;;;;;;;-145.67;100.00;66521.78;4997107;28;20037;-73
2022/07/02 01:37:39;;;;;;;10.05;4.15;;;;;;;-145.67;100.00;66521.78;4984805;28;20096;-73
2022/07/02 01:40:05;;;;;;;9.38;3.72;;;;;;;-145.67;100.00;66521.78;4990070;28;20049;-73
2022/07/02 01:42:30;;;;;;;13.20;4.80;;;;;;;-145.67;100.00;66521.78;5000266;28;20079;-72
2022/07/02 01:44:56;;;;;;;14.68;4.88;;;;;;;-145.67;100.00;66521.78;5002709;28;22095;-74
2022/07/02 01:47:22;;;;;;;13.32;4.63;;;;;;;-145.67;100.00;66521.78;5000617;28;20065;-73
2022/07/02 01:49:49;;;;;;;13.95;5.57;;;;;;;-145.67;100.00;66521.78;5002649;28;20116;-74
2022/07/02 01:52:18;;;;;;;10.90;5.03;;;;;;;-145.67;100.00;66521.78;4989908;28;20041;-75
2022/07/02 01:54:44;;;;;;;11.45;4.00;;;;;;;-145.67;100.00;66521.78;4999009;28;20038;-73
2022/07/02 01:57:10;;;;;;;9.63;3.55;;;;;;;-145.67;100.00;66521.78;4993318;28;20042;-73
2022/07/02 01:59:36;;;;;;;11.98;5.13;;;;;;;-145.67;100.00;66521.78;4961735;28;20502;-72
2022/07/02 02:02:08;;;;;;;14.90;4.28;;;;;;;-145.67;100.00;66521.78;5000283;28;20090;-73
2022/07/02 02:04:34;;;;;;;13.57;3.28;;;;;;;-145.67;100.00;66521.78;4999970;28;20030;-72
2022/07/02 02:07:06;;;;;;;9.98;3.13;;;;;;;-145.67;100.00;66521.78;4998326;28;20566;-73
2022/07/02 02:09:31;;;;;;;12.38;3.58;;;;;;;-145.67;100.00;66521.78;5000659;28;21759;-72
2022/07/02 02:11:57;;;;;;;9.63;3.20;;;;;;;-145.67;100.00;66521.78;5001868;28;20387;-73
2022/07/02 02:14:25;;;;;;;10.85;3.42;;;;;;;-145.67;100.00;66521.78;4992272;28;20128;-73
2022/07/02 02:16:50;;;;;;;16.63;4.78;;;;;;;-145.67;100.00;66521.78;5004549;28;20041;-73
2022/07/02 02:19:16;;;;;;;16.67;5.30;;;;;;;-145.67;100.00;66521.78;4999249;28;20108;-72
2022/07/02 02:21:48;;;;;;;15.75;8.43;;;;;;;-145.67;100.00;66521.78;4972105;28;20044;-72
2022/07/02 02:24:16;;;;;;;15.80;6.50;;;;;;;-145.67;100.00;66521.78;5002644;28;20636;-73
2022/07/02 02:26:41;;;;;;;11.55;4.25;;;;;;;-145.67;100.00;66521.78;4999140;28;20040;-73
2022/07/02 02:29:07;;;;;;;9.23;1.48;;;;;;;-145.67;100.00;66521.78;5004796;28;20033;-72
2022/07/02 02:31:32;;;;;;;7.35;1.70;;;;;;;-145.67;100.00;66521.78;4999332;28;20506;-73
2022/07/02 02:33:58;;;;;;;9.27;1.48;;;;;;;-145.67;100.00;66521.78;5000362;28;20050;-71
2022/07/02 02:36:24;;;;;;;13.85;2.15;;;;;;;-145.67;100.00;66521.78;4998421;28;20044;-74
2022/07/02 02:38:49;;;;;;;11.27;1.60;;;;;;;-145.67;100.00;66521.78;4997689;28;20025;-73
2022/07/02 02:41:17;;;;;;;9.90;1.98;;;;;;;-145.67;100.00;66521.78;5004482;28;20524;-75
2022/07/02 02:43:43;;;;;;;9.73;1.60;;;;;;;-145.67;100.00;66521.78;5000735;28;20037;-73
2022/07/02 02:46:09;;;;;;;6.75;1.52;;;;;;;-145.67;100.00;66521.78;4967898;28;20049;-73
2022/07/02 02:48:35;;;;;;;8.57;1.50;;;;;;;-145.67;100.00;66521.78;5015153;28;20167;-74
2022/07/02 02:51:01;;;;;;;7.25;1.60;;;;;;;-145.67;100.00;66521.78;4999251;28;20053;-73
2022/07/02 02:53:27;;;;;;;8.32;1.60;;;;;;;-145.67;100.00;66521.78;5003949;28;20044;-73
2022/07/02 02:55:55;;;;;;;10.88;1.33;;;;;;;-145.67;100.00;66521.78;5000662;28;20033;-74
2022/07/02 02:58:20;;;;;;;10.10;1.45;;;;;;;-145.67;100.00;66521.78;4981995;28;20887;-75
2022/07/02 03:00:46;;;;;;;9.38;1.25;;;;;;;-145.67;100.00;66521.78;4995561;28;20029;-73
2022/07/02 03:03:12;;;;;;;11.13;2.92;;;;;;;-145.67;100.00;66521.78;5002132;28;20048;-73
2022/07/02 03:05:40;;;;;;;16.25;4.57;;;;;;;-145.67;100.00;66521.78;4983640;28;20045;-73
2022/07/02 03:08:05;;;;;;;16.60;4.45;;;;;;;-145.67;100.00;66521.78;4987636;28;20033;-72
2022/07/02 03:10:31;;;;;;;18.98;4.20;;;;;;;-145.67;100.00;66521.78;4990478;28;20107;-72
2022/07/02 03:12:56;;;;;;;11.20;3.30;;;;;;;-145.67;100.00;66521.78;4986211;28;20037;-75
2022/07/02 03:15:22;;;;;;;11.27;3.35;;;;;;;-145.67;100.00;66521.78;4987741;28;20443;-72
2022/07/02 03:17:50;;;;;;;12.07;3.95;;;;;;;-145.67;100.00;66521.78;4987889;28;20491;-73
2022/07/02 03:20:15;;;;;;;14.15;3.83;;;;;;;-145.67;100.00;66521.78;4987042;28;20072;-73
2022/07/02 03:22:43;;;;;;;18.33;6.15;;;;;;;-145.67;100.00;66521.78;4985871;28;20092;-71
2022/07/02 03:25:11;;;;;;;15.23;5.28;;;;;;;-145.67;100.00;66521.78;4992864;28;20034;-71
2022/07/02 03:27:39;;;;;;;11.88;5.30;;;;;;;-145.67;100.00;66521.78;4991287;28;20042;-73
2022/07/02 03:30:06;;;;;;;14.25;6.38;;;;;;;-145.67;100.00;66521.78;5000181;28;20585;-72
2022/07/02 03:32:31;;;;;;;17.02;5.72;;;;;;;-145.67;100.00;66521.78;5002732;28;20773;-73
2022/07/02 03:34:59;;;;;;;17.15;5.57;;;;;;;-145.67;100.00;66521.78;4995702;28;20633;-73
2022/07/02 03:37:28;;;;;;;21.52;6.30;;;;;;;-145.67;100.00;66521.78;4985940;28;20100;-73
2022/07/02 03:39:56;;;;;;;17.17;6.85;;;;;;;-145.67;100.00;66521.78;5001004;28;20049;-73
2022/07/02 03:42:22;;;;;;;16.98;7.15;;;;;;;-145.67;100.00;66521.78;4995725;28;20048;-73
2022/07/02 03:44:48;;;;;;;17.75;7.90;;;;;;;-145.67;100.00;66521.78;4989163;28;20037;-73
2022/07/02 03:47:23;;;;;;;14.65;5.40;;;;;;;-145.67;100.00;66521.78;4990730;28;20042;-73
2022/07/02 03:49:48;;;;;;;13.18;4.55;;;;;;;-145.67;100.00;66521.78;4989520;28;20051;-74
2022/07/02 03:52:16;;;;;;;13.95;5.60;;;;;;;-145.67;100.00;66521.78;5000260;28;20406;-73
2022/07/02 03:54:45;;;;;;;22.30;8.55;;;;;;;-145.67;100.00;66521.78;4989844;28;20053;-74
2022/07/02 03:57:12;;;;;;;33.35;18.90;;;;;;;-145.67;100.00;66521.78;4984119;28;20042;-73
2022/07/02 03:59:38;;;;;;;64.47;35.35;;;;;;;-145.67;100.00;66521.78;4995273;28;20045;-74
2022/07/02 04:02:04;;;;;;;39.67;19.25;;;;;;;-145.67;100.00;66521.78;4990383;28;20442;-73
2022/07/02 04:04:31;;;;;;;19.17;7.68;;;;;;;-145.67;100.00;66521.78;4990423;28;20499;-74
2022/07/02 04:06:57;;;;;;;15.27;4.32;;;;;;;-145.67;100.00;66521.78;4990901;28;20049;-73
2022/07/02 04:09:26;;;;;;;14.02;3.90;;;;;;;-145.67;100.00;66521.78;4989119;28;20053;-73
2022/07/02 04:11:51;;;;;;;13.27;3.67;;;;;;;-145.67;100.00;66521.78;4990365;28;20033;-73
2022/07/02 04:14:17;;;;;;;14.52;6.32;;;;;;;-145.67;100.00;66521.78;4990497;28;20034;-72
2022/07/02 04:16:46;;;;;;;10.10;3.20;;;;;;;-145.67;100.00;66521.78;4990132;28;20048;-72
2022/07/02 04:19:11;;;;;;;14.05;4.55;;;;;;;-145.67;100.00;66521.78;5007435;28;20406;-72
2022/07/02 04:21:36;;;;;;;10.68;4.40;;;;;;;-145.67;100.00;66521.78;5014748;28;20824;-73
2022/07/02 04:24:02;;;;;;;10.85;4.03;;;;;;;-145.67;100.00;66521.78;5001117;28;20098;-72
2022/07/02 04:26:27;;;;;;;13.32;4.22;;;;;;;-145.67;100.00;66521.78;5001608;28;20037;-73
2022/07/02 04:28:53;;;;;;;16.30;4.57;;;;;;;-145.67;100.00;66521.78;4999408;28;20832;-73
2022/07/02 04:31:18;;;;;;;13.25;4.05;;;;;;;-145.67;100.00;66521.78;4999433;28;20060;-72
2022/07/02 04:33:46;;;;;;;13.43;4.07;;;;;;;-145.67;100.00;66521.78;4977385;28;20045;-73
2022/07/02 04:36:12;;;;;;;10.77;4.15;;;;;;;-145.67;100.00;66521.78;5001319;28;20030;-75
2022/07/02 04:38:38;;;;;;;10.57;4.40;;;;;;;-145.67;100.00;66521.78;4996453;28;20040;-74
2022/07/02 04:41:03;;;;;;;11.30;4.97;;;;;;;-145.67;100.00;66521.78;5001338;28;20489;-73
2022/07/02 04:43:29;;;;;;;13.18;4.25;;;;;;;-145.67;100.00;66521.78;5000361;28;20132;-73
2022/07/02 04:45:54;;;;;;;11.15;3.70;;;;;;;-145.67;100.00;66521.78;5014070;28;20034;-72
2022/07/02 04:48:20;;;;;;;9.30;3.55;;;;;;;-145.67;100.00;66521.78;4984631;28;20033;-73
2022/07/02 04:50:45;;;;;;;9.48;3.70;;;;;;;-145.67;100.00;66521.78;5002190;28;20160;-73
2022/07/02 04:53:11;;;;;;;13.63;5.25;;;;;;;-145.67;100.00;66521.78;5000178;28;20656;-73
2022/07/02 04:55:36;;;;;;;11.75;3.95;;;;;;;-145.67;100.00;66521.78;5002918;28;20125;-74
2022/07/02 04:58:02;;;;;;;12.30;3.92;;;;;;;-145.67;100.00;66521.78;5001926;28;20056;-73
2022/07/02 05:00:27;;;;;;;9.40;3.97;;;;;;;-145.67;100.00;66521.78;4988491;28;20033;-73
2022/07/02 05:02:53;;;;;;;8.40;4.60;;;;;;;-145.67;100.00;66521.78;5006808;28;20120;-74
2022/07/02 05:05:18;;;;;;;14.13;5.45;;;;;;;-145.67;100.00;66521.78;5001240;28;20149;-74
2022/07/02 05:07:44;;;;;;;8.40;4.40;;;;;;;-145.67;100.00;66521.78;5000265;28;20129;-72
2022/07/02 05:10:10;;;;;;;9.43;4.00;;;;;;;-145.67;100.00;66521.78;5001016;28;20099;-73
2022/07/02 05:12:35;;;;;;;12.77;4.40;;;;;;;-145.67;100.00;66521.78;5002394;28;20037;-73
2022/07/02 05:15:01;;;;;;;10.32;4.70;;;;;;;-145.67;100.00;66521.78;5006741;28;20030;-73
2022/07/02 05:17:26;;;;;;;11.40;4.70;;;;;;;-145.67;100.00;66521.78;4999876;28;20036;-73
2022/07/02 05:19:54;;;;;;;12.85;4.95;;;;;;;-145.67;100.00;66521.78;5001057;28;20038;-73
2022/07/02 05:22:20;;;;;;;13.80;7.28;;;;;;;-145.67;100.00;66521.78;4990229;28;20069;-73
2022/07/02 05:24:45;;;;;;;15.55;7.88;;;;;;;-145.67;100.00;66521.78;4996496;28;20148;-73
2022/07/02 05:27:11;;;;;;;15.00;4.50;;;;;;;-145.67;100.00;66521.78;5001956;28;20397;-73
2022/07/02 05:29:36;;;;;;;15.32;7.85;;;;;;;-145.67;100.00;66521.78;4997096;28;20060;-72
2022/07/02 05:32:02;;;;;;;14.40;7.32;;;;;;;-145.67;100.00;66521.78;5016849;28;20048;-72
2022/07/02 05:34:27;;;;;;;14.85;6.45;;;;;;;-145.67;100.00;66521.78;4998302;28;20040;-72
2022/07/02 05:36:53;;;;;;;10.68;5.20;;;;;;;-145.67;100.00;66521.78;5001010;28;20084;-72
2022/07/02 05:39:19;;;;;;;13.10;6.18;;;;;;;-145.67;100.00;66521.78;5013631;28;20041;-72
2022/07/02 05:41:47;;;;;;;17.48;7.38;;;;;;;-145.67;100.00;66521.78;5000247;28;20037;-72
2022/07/02 05:44:13;;;;;;;14.98;4.88;;;;;;;-145.67;100.00;66521.78;5002777;28;20569;-73
2022/07/02 05:46:38;;;;;;;15.70;6.10;;;;;;;-145.67;100.00;66521.78;4998795;28;20141;-72
2022/07/02 05:49:04;;;;;;;11.65;5.03;;;;;;;-145.67;100.00;66521.78;4999167;28;20026;-73
2022/07/02 05:51:29;;;;;;;13.25;6.63;;;;;;;-145.67;100.00;66521.78;5000717;28;20083;-73
2022/07/02 05:53:55;;;;;;;12.30;4.88;;;;;;;-145.67;100.00;66521.78;5000931;28;20030;-72
2022/07/02 05:56:21;;;;;;;13.35;3.70;;;;;;;-145.67;100.00;66521.78;5000255;28;20038;-72
2022/07/02 05:58:47;;;;;;;11.15;3.85;;;;;;;-145.67;100.00;66521.78;5000424;28;20033;-73
2022/07/02 06:01:12;;;;;;;12.32;3.13;;;;;;;-145.67;100.00;66521.78;5000932;28;20044;-72
2022/07/02 06:03:38;;;;;;;13.48;5.30;;;;;;;-145.67;100.00;66521.78;4998820;28;20044;-73
2022/07/02 06:08:47;;;;;;;20.45;5.05;;;;;;;-145.67;100.00;66521.78;4995517;28;20484;-73
2022/07/02 06:11:15;;;;;;;12.57;2.95;;;;;;;-145.67;100.00;66521.78;5002038;28;20579;-74
2022/07/02 06:13:42;;;;;;;7.93;2.38;;;;;;;-145.67;100.00;66521.78;4999135;28;20053;-73
2022/07/02 06:16:07;;;;;;;6.38;1.80;;;;;;;-145.67;100.00;66521.78;5004603;28;20893;-72
2022/07/02 06:18:34;;;;;;;8.15;3.55;;;;;;;-145.67;100.00;66521.78;4997839;28;20182;-73
2022/07/02 06:21:02;;;;;;;8.50;2.80;;;;;;;-145.67;100.00;66521.78;4997580;28;20029;-73
2022/07/02 06:23:27;;;;;;;8.60;4.57;;;;;;;-145.67;100.00;66521.78;5001530;28;20037;-73
2022/07/02 06:25:53;;;;;;;12.00;2.67;;;;;;;-145.67;100.00;66521.78;4997808;28;20838;-73
2022/07/02 06:28:19;;;;;;;8.88;2.55;;;;;;;-145.67;100.00;66521.78;4996621;28;20038;-71
2022/07/02 06:30:46;;;;;;;9.77;4.45;;;;;;;-145.67;100.00;66521.78;5001316;28;20067;-73
2022/07/02 06:33:14;;;;;;;9.35;4.80;;;;;;;-145.67;100.00;66521.78;5002111;28;20466;-74
2022/07/02 06:35:43;;;;;;;7.88;3.78;;;;;;;-145.67;100.00;66521.78;5013688;28;20037;-74
2022/07/02 06:38:09;;;;;;;10.77;4.25;;;;;;;-145.67;100.00;66521.78;4997402;28;20034;-72
2022/07/02 06:40:35;;;;;;;9.35;2.30;;;;;;;-145.67;100.00;66521.78;5000159;28;20046;-71
2022/07/02 06:43:00;;;;;;;14.00;6.28;;;;;;;-145.67;100.00;66521.78;5002446;28;20029;-72
2022/07/02 06:45:26;;;;;;;10.98;4.15;;;;;;;-145.67;100.00;66521.78;5001910;28;20081;-73
2022/07/02 06:47:52;;;;;;;5.30;1.52;;;;;;;-145.67;100.00;66521.78;4997771;28;20030;-72
2022/07/02 06:50:18;;;;;;;7.85;1.30;;;;;;;-145.67;100.00;66521.78;4998996;28;20045;-74
2022/07/02 06:52:46;;;;;;;6.90;1.30;;;;;;;-145.67;100.00;66521.78;4983975;28;20040;-72
2022/07/02 06:55:12;;;;;;;9.30;1.50;;;;;;;-145.67;100.00;66521.78;5000126;28;20048;-74
2022/07/02 06:57:39;;;;;;;6.93;1.50;;;;;;;-145.67;100.00;66521.78;5001220;28;20036;-74
2022/07/02 07:00:05;;;;;;;8.45;1.48;;;;;;;-145.67;100.00;66521.78;4995908;28;20530;-74
2022/07/02 07:02:31;;;;;;;7.95;1.10;;;;;;;-145.67;100.00;66521.78;4999939;28;20033;-74
2022/07/02 07:04:56;;;;;;;8.35;1.40;;;;;;;-145.67;100.00;66521.78;4998780;28;20728;-73
2022/07/02 07:07:27;;;;;;;8.48;1.10;;;;;;;-145.67;100.00;66521.78;5003521;28;20044;-73
2022/07/02 07:09:54;;;;;;;6.88;1.45;;;;;;;-145.67;100.00;66521.78;4986238;28;20143;-73
2022/07/02 07:12:20;;;;;;;8.38;1.60;;;;;;;-145.67;100.00;66521.78;4987636;28;20521;-72
2022/07/02 07:14:45;;;;;;;4.65;1.10;;;;;;;-145.67;100.00;66521.78;4989435;28;20148;-73
2022/07/02 07:17:11;;;;;;;5.72;1.48;;;;;;;-145.67;100.00;66521.78;4998046;28;20144;-72
2022/07/02 07:19:38;;;;;;;6.85;1.85;;;;;;;-145.67;100.00;66521.78;4998441;28;20068;-72
2022/07/02 07:22:04;;;;;;;9.73;2.80;;;;;;;-145.67;100.00;66521.78;5001187;28;20117;-72
2022/07/02 07:24:29;;;;;;;9.55;3.00;;;;;;;-145.67;100.00;66521.78;4996289;28;20034;-72
2022/07/02 07:26:58;;;;;;;9.82;1.60;;;;;;;-145.67;100.00;66521.78;4995735;28;20075;-74
2022/07/02 07:29:23;;;;;;;10.93;1.90;;;;;;;-145.67;100.00;66521.78;4982772;28;20061;-74
2022/07/02 07:31:51;;;;;;;6.95;1.67;;;;;;;-145.67;100.00;66521.78;4997164;28;20029;-75
2022/07/02 07:34:17;;;;;;;9.05;2.25;;;;;;;-145.67;100.00;66521.78;4986299;28;20490;-74
2022/07/02 07:36:42;;;;;;;8.02;1.67;;;;;;;-145.67;100.00;66521.78;4997334;28;20034;-75
2022/07/02 07:39:08;;;;;;;6.28;1.33;;;;;;;-145.67;100.00;66521.78;4994355;28;22314;-73
2022/07/02 07:41:34;;;;;;;8.40;1.38;;;;;;;-145.67;100.00;66521.78;4985558;28;20115;-73
2022/07/02 07:44:01;;;;;;;6.72;1.40;;;;;;;-145.67;100.00;66521.78;4994929;28;20040;-73
2022/07/02 07:46:26;;;;;;;8.70;2.63;;;;;;;-145.67;100.00;66521.78;4997068;28;20121;-73
2022/07/02 07:48:52;;;;;;;7.53;1.75;;;;;;;-145.67;100.00;66521.78;4996581;28;20035;-75
2022/07/02 07:51:17;;;;;;;6.65;1.50;;;;;;;-145.67;100.00;66521.78;4986565;28;20049;-75
2022/07/02 07:53:44;;;;;;;7.25;1.50;;;;;;;-145.67;100.00;66521.78;4997454;28;20069;-73
2022/07/02 07:56:14;;;;;;;5.97;1.45;;;;;;;-145.67;100.00;66521.78;4997993;28;20041;-74
2022/07/02 07:58:39;;;;;;;10.32;3.15;;;;;;;-145.67;100.00;66521.78;4997911;28;20428;-74
2022/07/02 08:01:05;;;;;;;7.68;2.00;;;;;;;-145.67;100.00;66521.78;4997072;28;20034;-73
2022/07/02 08:03:31;;;;;;;4.75;1.30;;;;;;;-145.67;100.00;66521.78;4995556;28;20041;-73
2022/07/02 08:05:57;;;;;;;8.38;1.70;;;;;;;-145.67;100.00;66521.78;5001674;28;20065;-74
2022/07/02 08:08:22;;;;;;;7.75;1.63;;;;;;;-145.67;100.00;66521.78;5002195;28;20029;-73
2022/07/02 08:10:48;;;;;;;6.13;1.77;;;;;;;-145.67;100.00;66521.78;4998740;28;20083;-72
2022/07/02 08:13:18;;;;;;;8.18;1.70;;;;;;;-145.67;100.00;66521.78;4997694;28;20060;-72
2022/07/02 08:15:44;;;;;;;7.20;1.80;;;;;;;-145.67;100.00;66521.78;5011851;28;20417;-74
2022/07/02 08:18:09;;;;;;;6.13;1.88;;;;;;;-145.67;100.00;66521.78;4998452;28;20033;-72
2022/07/02 08:20:36;;;;;;;5.53;1.58;;;;;;;-145.67;100.00;66521.78;5002347;28;20755;-71
2022/07/02 08:23:03;;;;;;;6.38;1.30;;;;;;;-145.67;100.00;66521.78;4997501;28;20103;-72
2022/07/02 08:25:30;;;;;;;7.00;1.75;;;;;;;-145.67;100.00;66521.78;5012783;28;20034;-74
2022/07/02 08:27:56;;;;;;;6.70;1.63;;;;;;;-145.67;100.00;66521.78;4996199;28;20084;-73
2022/07/02 08:30:21;;;;;;;5.80;1.67;;;;;;;-145.67;100.00;66521.78;4999909;28;20491;-73
2022/07/02 08:32:47;;;;;;;4.68;1.70;;;;;;;-145.67;100.00;66521.78;5001121;28;20413;-73
2022/07/02 08:35:12;;;;;;;5.72;1.50;;;;;;;-145.67;100.00;66521.78;5002260;28;20240;-74
2022/07/02 08:37:39;;;;;;;6.07;2.40;;;;;;;-145.67;100.00;66521.78;5001656;28;20411;-72
2022/07/02 08:40:07;;;;;;;5.20;1.38;;;;;;;-145.67;100.00;66521.78;5001177;28;20044;-75
2022/07/02 08:42:32;;;;;;;4.03;0.95;;;;;;;-145.67;100.00;66521.78;5000413;28;20072;-74
2022/07/02 08:45:00;;;;;;;4.40;1.80;;;;;;;-145.67;100.00;66521.78;5000736;28;20159;-72
2022/07/02 08:47:27;;;;;;;6.60;1.23;;;;;;;-145.67;100.00;66521.78;5000972;28;20042;-71
2022/07/02 08:49:54;;;;;;;8.02;1.38;;;;;;;-145.67;100.00;66521.78;5001328;28;20046;-73
2022/07/02 08:52:21;;;;;;;5.07;1.05;;;;;;;-145.67;100.00;66521.78;5000337;28;20145;-72
2022/07/02 08:54:46;;;;;;;6.70;1.15;;;;;;;-145.67;100.00;66521.78;5005937;28;20026;-74
2022/07/02 08:57:13;;;;;;;6.05;1.20;;;;;;;-145.67;100.00;66521.78;5001047;28;20425;-74
2022/07/02 08:59:39;;;;;;;6.10;1.00;;;;;;;-145.67;100.00;66521.78;5002104;28;20073;-75
2022/07/02 09:02:06;;;;;;;4.65;1.10;;;;;;;-145.67;100.00;66521.78;4997971;28;20072;-71
2022/07/02 09:04:33;;;;;;;3.90;1.25;;;;;;;-145.67;100.00;66521.78;5010708;28;20117;-73
2022/07/02 09:07:03;;;;;;;3.33;0.80;;;;;;;-145.67;100.00;66521.78;4996380;28;20045;-72
2022/07/02 09:09:31;;;;;;;6.50;1.10;;;;;;;-145.67;100.00;66521.78;5000357;28;20056;-73
2022/07/02 09:11:57;;;;;;;6.97;1.15;;;;;;;-145.67;100.00;66521.78;4999039;28;20156;-75
2022/07/02 09:14:25;;;;;;;3.58;0.95;;;;;;;-145.67;100.00;66521.78;4987597;28;20131;-71
2022/07/02 09:16:51;;;;;;;4.85;1.20;;;;;;;-145.67;100.00;66521.78;5011302;28;20662;-73
2022/07/02 09:19:17;;;;;;;4.40;1.10;;;;;;;-145.67;100.00;66521.78;4982092;28;20384;-71
2022/07/02 09:21:49;;;;;;;7.80;1.15;;;;;;;-145.67;100.00;66521.78;5000700;28;20048;-71
2022/07/02 09:24:14;;;;;;;;;;;;;;;-145.67;100.00;66521.78;4998151;28;20053;-72
2022/07/02 09:26:39;;;;;;;4.55;1.00;;;;;;;-145.67;100.00;66521.78;5016577;28;20592;-73
2022/07/02 09:29:05;;;;;;;4.13;1.00;;;;;;;-145.67;100.00;66521.78;4998615;28;20045;-72
2022/07/02 09:31:32;;;;;;;3.13;1.20;;;;;;;-145.67;100.00;66521.78;5003143;28;22207;-75
2022/07/02 09:34:00;;;;;;;4.63;1.13;;;;;;;-145.67;100.00;66521.78;5005585;28;20061;-74
2022/07/02 09:36:26;;;;;;;4.00;0.80;;;;;;;-145.67;100.00;66521.78;4998398;28;20042;-75
2022/07/02 09:38:53;;;;;;;7.28;1.48;;;;;;;-145.67;100.00;66521.78;5001162;28;20048;-72
2022/07/02 09:41:23;;;;;;;5.93;1.55;;;;;;;-145.67;100.00;66521.78;4986473;28;20485;-77
2022/07/02 09:44:03;;;;;;;6.22;1.23;;;;;;;-145.67;100.00;66521.78;5005009;28;20040;-82
2022/07/02 09:46:31;;;;;;;4.97;0.90;;;;;;;-145.67;100.00;66521.78;5015756;28;20519;-75
2022/07/02 09:49:08;;;;;;;4.13;0.82;;;;;;;-145.67;100.00;66521.78;5000002;28;20467;-77
2022/07/02 09:51:52;;;;;;;3.05;0.90;;;;;;;-145.67;100.00;66521.78;5000956;28;20221;-77
2022/07/02 09:54:21;;;;;;;5.90;1.00;;;;;;;-145.67;100.00;66521.78;4999888;28;20033;-77
2022/07/02 09:56:57;;;;;;;4.00;0.93;;;;;;;-145.67;100.00;66521.78;4999261;28;20052;-77
2022/07/02 09:59:23;;;;;;;5.95;1.15;;;;;;;-145.67;100.00;66521.78;4998590;28;20037;-76
2022/07/02 10:01:49;;;;;;;3.45;1.05;;;;;;;-145.67;100.00;66521.78;5005256;28;20034;-76
2022/07/02 10:04:25;;;;;;;5.13;0.88;;;;;;;-145.67;100.00;66521.78;5001247;28;20132;-75
2022/07/02 10:06:51;;;;;;;7.53;0.88;;;;;;;-145.67;100.00;66521.78;5003475;28;20044;-80
2022/07/02 10:09:17;;;;;;;5.25;0.90;;;;;;;-145.67;100.00;66521.78;5001180;28;20105;-78
2022/07/02 10:11:42;;;;;;;6.50;1.10;;;;;;;-145.67;100.00;66521.78;5001883;28;20034;-77
2022/07/02 10:14:12;;;;;;;5.07;0.90;;;;;;;-145.67;100.00;66521.78;4999937;28;20041;-82
2022/07/02 10:16:40;;;;;;;4.88;1.00;;;;;;;-145.67;100.00;66521.78;5000441;28;20084;-78
2022/07/02 10:19:06;;;;;;;6.88;0.98;;;;;;;-145.67;100.00;66521.78;5005147;28;20034;-79
2022/07/02 10:21:32;;;;;;;4.43;0.90;;;;;;;-145.67;100.00;66521.78;5000272;28;20046;-78
2022/07/02 10:24:00;;;;;;;1.48;0.68;;;;;;;-145.67;100.00;66521.78;4999663;28;20038;-77
2022/07/02 10:26:26;;;;;;;5.55;1.00;;;;;;;-145.67;100.00;66521.78;4999135;28;20034;-82
2022/07/02 10:28:53;;;;;;;4.28;1.00;;;;;;;-145.67;100.00;66521.78;4991893;28;20490;-79
2022/07/02 10:31:19;;;;;;;2.67;1.05;;;;;;;-145.67;100.00;66521.78;5001908;28;20478;-78
2022/07/02 10:33:55;;;;;;;6.05;0.75;;;;;;;-145.67;100.00;66521.78;5001443;28;20367;-81
2022/07/02 10:36:22;;;;;;;3.15;0.50;;;;;;;-145.67;100.00;66521.78;4989385;28;20390;-77
2022/07/02 10:38:58;;;;;;;3.38;0.73;;;;;;;-145.67;100.00;66521.78;4985330;28;20079;-78
2022/07/02 10:41:43;;;;;;;5.15;0.70;;;;;;;-145.67;100.00;66521.78;4958751;28;20033;-84
2022/07/02 10:44:09;;;;;;;3.47;0.80;;;;;;;-145.67;100.00;66521.78;4957491;28;20157;-78
2022/07/02 10:46:36;;;;;;;1.95;0.80;;;;;;;-145.67;100.00;66521.78;4972353;28;20131;-78
2022/07/02 10:49:07;;;;;;;2.72;0.70;;;;;;;-145.67;100.00;66521.78;4942413;28;20445;-79
2022/07/02 10:51:35;;;;;;;3.42;0.75;;;;;;;-145.67;100.00;66521.78;4977861;28;20054;-79
2022/07/02 10:54:03;;;;;;;3.38;0.80;;;;;;;-145.67;100.00;66521.78;4959600;28;20119;-76
2022/07/02 10:56:49;;;;;;;1.92;0.60;;;;;;;-145.67;100.00;66521.78;4962925;28;20075;-81
2022/07/02 10:59:28;;;;;;;4.30;1.20;;;;;;;-145.67;100.00;66521.78;4978472;28;20111;-77
2022/07/02 11:02:04;;;;;;;4.65;0.90;;;;;;;-145.67;100.00;66521.78;4947507;28;20050;-79
2022/07/02 11:04:32;;;;;;;5.00;1.20;;;;;;;-145.67;100.00;66521.78;4961281;28;20044;-79
2022/07/02 11:07:09;;;;;;;4.10;1.58;;;;;;;-145.67;100.00;66521.78;4978059;28;20101;-79
2022/07/02 11:09:49;;;;;;;8.43;0.90;;;;;;;-145.67;100.00;66521.78;4949809;28;20061;-82
2022/07/02 11:12:19;;;;;;;6.82;0.80;;;;;;;-145.67;100.00;66521.78;4969817;28;20284;-82